Time;durP1;ratioP1;P1;durP2;ratioP2;P2;SDS_P1;SDS_P2;PMS_P1;PMS_P2;Temp;Humidity;BMP_temperature;BMP_pressure;BME280_temperature;BME280_humidity;BME280_pressure;Samples;Min_cycle;Max_cycle;Signal;HPM_P1;HPM_P2
2023/03/24 00:01:46;;;;;;;1.13;1.13;;;;;;;13.59;72.56;94825.78;4366689;32;20228;-55
2023/03/24 00:04:11;;;;;;;0.73;0.73;;;;;;;13.62;72.37;94823.25;4376303;32;20215;-55
2023/03/24 00:06:37;;;;;;;1.10;1.10;;;;;;;13.47;72.84;94823.06;4362481;32;20185;-54
2023/03/24 00:09:03;;;;;;;1.33;1.17;;;;;;;13.32;73.23;94817.19;4369999;32;20172;-57
2023/03/24 00:11:28;;;;;;;0.90;0.90;;;;;;;13.35;73.35;94815.75;4373105;32;20181;-56
2023/03/24 00:13:57;;;;;;;0.73;0.73;;;;;;;13.29;73.65;94819.72;4376251;32;21343;-56
2023/03/24 00:16:23;;;;;;;0.63;0.63;;;;;;;13.22;73.94;94798.91;4354914;32;20231;-56
2023/03/24 00:18:51;;;;;;;0.70;0.70;;;;;;;13.32;73.86;94797.75;4361036;32;20208;-57
2023/03/24 00:21:20;;;;;;;0.50;0.50;;;;;;;13.24;74.22;94790.59;4351438;32;20192;-55
2023/03/24 00:23:48;;;;;;;0.80;0.80;;;;;;;13.24;74.33;94782.63;4367667;32;20192;-55
2023/03/24 00:26:15;;;;;;;1.50;1.20;;;;;;;13.24;74.12;94780.72;4354896;32;20357;-55
2023/03/24 00:28:46;;;;;;;0.87;0.87;;;;;;;13.24;73.69;94766.63;4365932;32;20181;-53
2023/03/24 00:31:15;;;;;;;0.87;0.87;;;;;;;13.22;73.81;94761.62;4369765;32;20176;-55
2023/03/24 00:33:43;;;;;;;1.83;0.97;;;;;;;13.22;73.50;94774.16;4358666;32;20250;-55
2023/03/24 00:36:10;;;;;;;1.07;0.97;;;;;;;13.17;73.40;94758.38;4355481;32;20239;-56
2023/03/24 00:38:37;;;;;;;0.60;0.60;;;;;;;13.15;73.27;94747.22;4369974;32;20227;-54
2023/03/24 00:41:04;;;;;;;0.60;0.60;;;;;;;13.11;73.82;94752.41;4358378;32;20196;-55
2023/03/24 00:43:30;;;;;;;0.73;0.73;;;;;;;13.12;73.59;94747.84;4345042;32;20216;-56
2023/03/24 00:46:00;;;;;;;0.77;0.77;;;;;;;13.06;73.87;94745.41;4354379;32;20255;-54
2023/03/24 00:48:27;;;;;;;0.60;0.60;;;;;;;12.92;74.27;94744.06;4360403;32;20195;-57
2023/03/24 00:50:52;;;;;;;0.40;0.40;;;;;;;12.85;74.69;94744.59;4370021;32;20193;-54
2023/03/24 00:53:18;;;;;;;0.77;0.67;;;;;;;12.96;74.32;94737.78;4359040;32;20195;-55
2023/03/24 00:55:46;;;;;;;0.93;0.93;;;;;;;12.95;74.40;94736.22;4358609;32;20265;-57
2023/03/24 00:58:33;;;;;;;2.67;0.63;;;;;;;12.96;74.20;94729.00;4369734;32;20207;-54
2023/03/24 01:00:59;;;;;;;1.00;1.00;;;;;;;12.81;74.49;94735.69;4357916;32;20251;-57
2023/03/24 01:03:28;;;;;;;0.97;0.97;;;;;;;12.87;74.47;94739.72;4372764;32;20185;-55
2023/03/24 01:06:00;;;;;;;0.50;0.50;;;;;;;12.92;74.18;94734.19;4369148;32;20260;-55
2023/03/24 01:08:27;;;;;;;0.60;0.60;;;;;;;12.89;74.01;94736.72;4359549;32;20274;-57
2023/03/24 01:10:53;;;;;;;0.77;0.77;;;;;;;13.02;73.63;94727.72;4359768;32;20189;-55
2023/03/24 01:13:21;;;;;;;0.60;0.60;;;;;;;13.14;73.05;94741.13;4359776;32;20203;-55
2023/03/24 01:15:47;;;;;;;0.90;0.90;;;;;;;13.14;72.85;94746.44;4350603;32;20228;-56
2023/03/24 01:18:13;;;;;;;1.73;1.30;;;;;;;13.11;73.02;94751.63;4364322;32;20188;-57
2023/03/24 01:20:44;;;;;;;1.63;0.77;;;;;;;13.27;72.27;94753.44;4371706;32;20219;-55
2023/03/24 01:23:12;;;;;;;0.60;0.60;;;;;;;13.15;72.51;94758.69;4373433;32;20199;-53
2023/03/24 01:25:38;;;;;;;1.70;0.83;;;;;;;13.16;72.54;94748.81;4356132;32;20189;-54
2023/03/24 01:28:04;;;;;;;0.60;0.60;;;;;;;13.18;72.81;94752.72;4375738;32;20240;-55
2023/03/24 01:30:30;;;;;;;1.47;1.37;;;;;;;13.28;71.94;94752.34;4371625;32;20223;-56
2023/03/24 01:32:56;;;;;;;1.60;0.90;;;;;;;13.23;72.06;94751.75;4372100;32;20177;-56
2023/03/24 01:35:27;;;;;;;1.33;1.33;;;;;;;13.40;71.17;94749.75;4356749;32;20173;-55
2023/03/24 01:37:52;;;;;;;0.87;0.77;;;;;;;13.33;70.92;94744.16;4353256;32;20200;-56
2023/03/24 01:40:21;;;;;;;0.77;0.77;;;;;;;13.32;71.53;94739.12;4364888;32;20181;-53
2023/03/24 01:42:47;;;;;;;0.80;0.80;;;;;;;13.31;71.69;94732.25;4370133;32;20335;-56
2023/03/24 01:45:37;;;;;;;0.80;0.80;;;;;;;13.32;71.39;94723.94;4358620;32;20182;-56
2023/03/24 01:48:05;;;;;;;1.07;1.07;;;;;;;13.39;71.03;94726.09;4365871;32;20288;-57
2023/03/24 01:50:31;;;;;;;1.37;1.27;;;;;;;13.33;71.04;94719.37;4359408;32;20247;-57
2023/03/24 01:52:57;;;;;;;1.00;1.00;;;;;;;13.35;70.94;94714.50;4368816;32;20223;-56
2023/03/24 01:55:23;;;;;;;1.33;1.27;;;;;;;13.08;71.83;94708.59;4368152;32;20211;-57
2023/03/24 01:57:52;;;;;;;0.50;0.50;;;;;;;13.19;71.59;94709.00;4356350;32;20272;-56
2023/03/24 02:00:20;;;;;;;0.93;0.93;;;;;;;13.06;71.92;94708.12;4358132;32;20195;-57
2023/03/24 02:02:53;;;;;;;1.77;1.13;;;;;;;13.16;71.49;94701.66;4375582;32;20181;-55
2023/03/24 02:05:21;;;;;;;1.07;0.93;;;;;;;13.25;71.21;94705.03;4369194;32;20193;-55
2023/03/24 02:08:01;;;;;;;1.10;1.10;;;;;;;13.09;71.42;94712.03;4360820;32;20239;-55
2023/03/24 02:10:30;;;;;;;3.47;1.53;;;;;;;13.10;71.42;94708.22;4375782;32;20188;-54
2023/03/24 02:12:56;;;;;;;0.87;0.87;;;;;;;13.23;71.09;94723.22;4372235;32;20338;-54
2023/03/24 02:15:23;;;;;;;0.77;0.77;;;;;;;13.34;70.50;94724.38;4374914;32;20193;-56
2023/03/24 02:18:00;;;;;;;0.43;0.43;;;;;;;13.33;70.27;94724.72;4374913;32;20184;-56
2023/03/24 02:20:50;;;;;;;2.00;1.10;;;;;;;13.38;70.84;94721.88;4362399;32;20184;-56
2023/03/24 02:23:39;;;;;;;0.47;0.47;;;;;;;13.35;70.93;94719.84;4353603;32;20185;-54
2023/03/24 02:26:40;;;;;;;2.47;1.73;;;;;;;13.24;71.54;94714.13;4360277;32;20200;-56
2023/03/24 02:29:24;;;;;;;0.90;0.90;;;;;;;13.38;70.70;94719.19;4371417;32;20238;-57
2023/03/24 02:32:21;;;;;;;0.70;0.70;;;;;;;13.39;70.79;94710.87;4371196;32;20200;-57
2023/03/24 02:34:58;;;;;;;0.97;0.97;;;;;;;13.40;70.50;94714.31;4371567;32;20208;-55
2023/03/24 02:37:34;;;;;;;0.57;0.57;;;;;;;13.32;70.46;94720.50;4371757;32;20180;-55
2023/03/24 02:40:06;;;;;;;0.60;0.60;;;;;;;13.31;71.10;94721.59;4355013;32;20185;-54
2023/03/24 02:43:13;;;;;;;1.43;1.33;;;;;;;13.32;70.97;94720.50;4363678;32;20184;-56
2023/03/24 02:46:17;;;;;;;1.57;1.47;;;;;;;13.41;71.24;94726.53;4354476;32;20234;-56
2023/03/24 02:48:56;;;;;;;1.13;1.13;;;;;;;13.57;70.91;94727.50;4363622;32;20192;-57
2023/03/24 02:51:43;;;;;;;0.57;0.57;;;;;;;13.43;72.20;94719.00;4341971;32;20260;-55
2023/03/24 02:54:15;;;;;;;1.10;1.00;;;;;;;13.33;73.97;94712.19;4371956;32;20242;-56
2023/03/24 02:57:03;;;;;;;1.20;1.20;;;;;;;13.16;73.65;94708.88;4374538;32;20211;-57
2023/03/24 02:59:55;;;;;;;0.90;0.83;;;;;;;13.07;74.01;94720.34;4356674;32;20316;-55
2023/03/24 03:02:29;;;;;;;0.97;0.97;;;;;;;13.09;75.20;94701.38;4361234;32;20204;-55
2023/03/24 03:05:04;;;;;;;0.70;0.70;;;;;;;13.24;74.00;94708.03;4355181;32;20241;-56
2023/03/24 03:07:36;;;;;;;1.70;1.53;;;;;;;13.21;74.91;94698.81;4375158;32;20180;-55
2023/03/24 03:10:01;;;;;;;0.53;0.53;;;;;;;13.18;75.33;94696.00;4363558;32;20264;-56
2023/03/24 03:12:32;;;;;;;1.33;1.23;;;;;;;13.06;74.30;94700.12;4373207;32;20180;-57
2023/03/24 03:15:07;;;;;;;0.60;0.60;;;;;;;13.09;75.06;94691.47;4360767;32;20180;-54
2023/03/24 03:17:40;;;;;;;1.03;0.83;;;;;;;13.15;75.05;94697.44;4362981;32;20242;-57
2023/03/24 03:20:20;;;;;;;0.60;0.60;;;;;;;13.13;75.58;94688.16;4363585;32;20203;-52
2023/03/24 03:22:51;;;;;;;1.10;0.73;;;;;;;13.19;75.17;94686.91;4369364;32;20206;-56
2023/03/24 03:25:23;;;;;;;0.93;0.60;;;;;;;13.19;75.08;94687.69;4362337;32;20240;-56
2023/03/24 03:27:51;;;;;;;0.77;0.77;;;;;;;13.16;75.17;94687.56;4360829;32;20253;-56
2023/03/24 03:30:32;;;;;;;0.97;0.97;;;;;;;13.29;75.55;94679.31;4349479;32;20221;-55
2023/03/24 03:33:08;;;;;;;0.80;0.80;;;;;;;13.20;74.88;94675.94;4360460;32;20189;-55
2023/03/24 03:35:43;;;;;;;1.17;0.90;;;;;;;13.03;75.42;94679.47;4351863;32;20196;-56
2023/03/24 03:38:22;;;;;;;0.63;0.63;;;;;;;13.11;75.13;94674.41;4370935;32;20192;-54
2023/03/24 03:40:53;;;;;;;1.97;1.30;;;;;;;13.02;75.28;94666.50;4375331;32;20246;-56
2023/03/24 03:43:18;;;;;;;1.07;0.70;;;;;;;13.00;75.73;94668.69;4366633;32;20180;-56
2023/03/24 03:45:44;;;;;;;1.37;1.27;;;;;;;12.99;75.64;94648.50;4370924;32;20250;-54
2023/03/24 03:48:10;;;;;;;1.83;1.73;;;;;;;12.88;76.16;94650.78;4361015;32;20215;-55
2023/03/24 03:50:37;;;;;;;2.03;1.17;;;;;;;12.88;76.19;94647.34;4369858;32;20200;-56
2023/03/24 03:53:03;;;;;;;1.03;0.97;;;;;;;12.74;77.14;94635.03;4347367;32;20185;-56
2023/03/24 03:55:29;;;;;;;1.00;1.00;;;;;;;12.68;77.25;94628.34;4356787;32;20195;-55
2023/03/24 03:57:55;;;;;;;0.63;0.63;;;;;;;12.53;77.92;94628.13;4354416;32;20273;-55
2023/03/24 04:00:21;;;;;;;0.40;0.40;;;;;;;12.60;77.58;94609.78;4366551;32;20334;-54
2023/03/24 04:03:04;;;;;;;0.53;0.53;;;;;;;12.55;78.05;94604.63;4372973;32;20202;-53
2023/03/24 04:05:36;;;;;;;0.53;0.53;;;;;;;12.45;78.54;94605.03;4354053;32;20244;-54
2023/03/24 04:08:20;;;;;;;0.63;0.63;;;;;;;12.51;78.37;94601.06;4365058;32;20270;-53
2023/03/24 04:10:51;;;;;;;1.10;1.10;;;;;;;12.36;78.70;94595.22;4353372;32;20207;-54
2023/03/24 04:13:29;;;;;;;1.00;0.90;;;;;;;12.38;78.88;94593.00;4369255;32;20232;-54
2023/03/24 04:16:21;;;;;;;1.00;0.90;;;;;;;12.41;78.76;94586.28;4365226;32;20252;-57
2023/03/24 04:18:58;;;;;;;0.60;0.60;;;;;;;12.39;78.58;94583.94;4331467;32;20180;-56
2023/03/24 04:22:01;;;;;;;1.00;1.00;;;;;;;12.33;79.23;94598.50;4355043;32;20192;-54
2023/03/24 04:24:33;;;;;;;0.90;0.90;;;;;;;12.27;79.53;94591.81;4367099;32;20190;-56
2023/03/24 04:27:08;;;;;;;1.00;1.00;;;;;;;12.35;79.25;94588.31;4365563;32;20203;-52
2023/03/24 04:29:41;;;;;;;0.67;0.67;;;;;;;12.26;79.34;94598.22;4353861;32;20193;-51
2023/03/24 04:32:13;;;;;;;0.60;0.60;;;;;;;12.41;79.13;94596.13;4365179;32;20181;-56
2023/03/24 04:34:45;;;;;;;0.87;0.87;;;;;;;12.44;78.82;94601.59;4363008;32;20298;-54
2023/03/24 04:37:15;;;;;;;0.97;0.97;;;;;;;12.49;78.49;94606.69;4372476;32;20191;-55
2023/03/24 04:39:44;;;;;;;0.83;0.83;;;;;;;12.55;78.37;94596.66;4371618;32;20219;-56
2023/03/24 04:42:19;;;;;;;0.67;0.67;;;;;;;12.61;77.70;94598.03;4366840;32;20185;-56
2023/03/24 04:44:45;;;;;;;1.10;1.10;;;;;;;12.67;77.69;94592.22;4361499;32;20222;-53
2023/03/24 04:47:11;;;;;;;0.50;0.50;;;;;;;12.71;77.44;94597.63;4374190;32;20192;-56
2023/03/24 04:49:38;;;;;;;1.13;1.03;;;;;;;12.78;77.20;94597.13;4363616;32;20220;-54
2023/03/24 04:52:05;;;;;;;0.70;0.70;;;;;;;12.67;77.55;94599.41;4369037;32;20193;-56
2023/03/24 04:54:30;;;;;;;1.63;1.53;;;;;;;12.71;77.17;94601.06;4376274;32;20263;-57
2023/03/24 04:57:00;;;;;;;0.60;0.60;;;;;;;12.84;76.87;94604.59;4375745;32;20230;-55
2023/03/24 04:59:30;;;;;;;1.10;1.10;;;;;;;12.89;76.27;94604.37;4366749;32;20280;-57
2023/03/24 05:01:55;;;;;;;1.17;1.17;;;;;;;12.91;76.07;94601.41;4358500;32;20295;-56
2023/03/24 05:04:23;;;;;;;0.40;0.40;;;;;;;12.95;75.84;94604.97;4369031;32;20185;-57
2023/03/24 05:06:49;;;;;;;1.77;1.07;;;;;;;12.96;75.96;94596.66;4356041;32;20197;-56
2023/03/24 05:09:16;;;;;;;0.53;0.53;;;;;;;12.84;76.40;94607.25;4360115;32;20200;-56
2023/03/24 05:11:42;;;;;;;1.60;1.50;;;;;;;12.86;76.25;94602.41;4373366;32;20172;-55
2023/03/24 05:14:08;;;;;;;2.70;1.23;;;;;;;12.96;75.85;94609.19;4355445;32;20188;-56
2023/03/24 05:16:34;;;;;;;0.77;0.77;;;;;;;13.06;75.51;94606.16;4361111;32;20230;-56
2023/03/24 05:19:00;;;;;;;0.93;0.93;;;;;;;13.06;75.70;94616.81;4362576;32;20208;-56
2023/03/24 05:21:25;;;;;;;1.23;1.23;;;;;;;13.06;75.79;94624.78;4368175;32;20260;-55
2023/03/24 05:23:51;;;;;;;1.20;1.10;;;;;;;13.16;75.90;94637.72;4368024;32;20250;-55
2023/03/24 05:26:16;;;;;;;0.90;0.90;;;;;;;13.22;76.29;94655.09;4364220;32;20216;-56
2023/03/24 05:28:42;;;;;;;1.07;1.07;;;;;;;13.25;78.33;94641.13;4366173;32;20204;-55
2023/03/24 05:31:07;;;;;;;0.90;0.90;;;;;;;13.22;79.53;94646.31;4358750;32;20220;-56
2023/03/24 05:33:32;;;;;;;1.10;1.10;;;;;;;13.17;79.80;94649.16;4371443;32;20207;-55
2023/03/24 05:35:58;;;;;;;0.80;0.80;;;;;;;13.06;80.12;94652.22;4366158;32;20219;-56
2023/03/24 05:38:23;;;;;;;0.93;0.93;;;;;;;12.94;80.85;94652.13;4354188;32;20193;-57
2023/03/24 05:40:48;;;;;;;1.00;1.00;;;;;;;12.92;80.71;94645.56;4371818;32;20234;-54
2023/03/24 05:43:14;;;;;;;0.73;0.73;;;;;;;12.82;80.41;94660.03;4359897;32;20192;-56
2023/03/24 05:45:40;;;;;;;0.93;0.83;;;;;;;12.86;81.59;94658.31;4371107;32;20180;-55
2023/03/24 05:48:07;;;;;;;1.13;1.13;;;;;;;12.97;81.56;94650.69;4359007;32;20199;-55
2023/03/24 05:50:32;;;;;;;1.77;0.93;;;;;;;12.98;81.69;94641.59;4374772;32;20208;-54
2023/03/24 05:52:58;;;;;;;0.87;0.87;;;;;;;13.10;82.86;94644.31;4374875;32;20173;-55
2023/03/24 05:55:24;;;;;;;2.77;1.50;;;;;;;12.98;83.62;94637.06;4375145;32;20177;-56
2023/03/24 05:57:50;;;;;;;0.93;0.93;;;;;;;13.03;84.50;94644.88;4354198;32;20196;-55
2023/03/24 06:00:16;;;;;;;1.00;0.93;;;;;;;12.98;85.29;94663.69;4372232;32;20181;-55
2023/03/24 06:02:43;;;;;;;1.93;1.83;;;;;;;12.97;83.01;94656.81;4373161;32;20235;-55
2023/03/24 06:05:09;;;;;;;0.57;0.57;;;;;;;12.88;84.59;94653.44;4366849;32;20189;-56
2023/03/24 06:07:35;;;;;;;1.50;1.40;;;;;;;13.07;83.20;94659.09;4362730;32;20184;-55
2023/03/24 06:10:03;;;;;;;1.97;1.70;;;;;;;13.08;84.06;94652.66;4374335;32;20181;-56
2023/03/24 06:12:29;;;;;;;1.43;1.33;;;;;;;13.14;84.15;94650.56;4361651;32;20188;-56
2023/03/24 06:14:59;;;;;;;1.70;1.60;;;;;;;13.13;83.90;94656.22;4360040;32;24128;-56
2023/03/24 06:17:27;;;;;;;0.90;0.90;;;;;;;13.12;85.82;94652.00;4372674;32;20177;-56
2023/03/24 06:19:53;;;;;;;0.77;0.77;;;;;;;12.99;87.00;94633.28;4373852;32;20181;-54
2023/03/24 06:22:19;;;;;;;1.23;1.23;;;;;;;12.96;85.41;94622.50;4367366;32;20181;-56
2023/03/24 06:24:48;;;;;;;1.37;1.37;;;;;;;13.03;84.51;94607.59;4375591;32;20172;-57
2023/03/24 06:27:14;;;;;;;0.93;0.93;;;;;;;13.06;84.48;94592.84;4354947;32;20195;-56
2023/03/24 06:29:43;;;;;;;1.23;1.23;;;;;;;13.09;83.53;94589.53;4366875;32;20192;-55
2023/03/24 06:32:09;;;;;;;1.63;1.60;;;;;;;13.15;82.16;94598.88;4375115;32;20189;-57
2023/03/24 06:34:36;;;;;;;0.93;0.93;;;;;;;13.25;81.63;94608.38;4379062;32;20180;-56
2023/03/24 06:37:01;;;;;;;0.70;0.70;;;;;;;13.31;82.44;94607.81;4373521;32;20196;-57
2023/03/24 06:39:26;;;;;;;0.90;0.90;;;;;;;13.20;82.45;94616.56;4361248;32;20195;-55
2023/03/24 06:41:52;;;;;;;1.77;1.67;;;;;;;13.41;81.17;94611.97;4357203;32;20197;-54
2023/03/24 06:44:17;;;;;;;7.77;2.00;;;;;;;13.47;80.71;94609.91;4354771;32;20246;-56
2023/03/24 06:46:44;;;;;;;1.30;1.27;;;;;;;13.28;81.34;94597.84;4353868;32;20188;-55
2023/03/24 06:49:10;;;;;;;1.30;1.30;;;;;;;13.05;81.89;94592.06;4344809;32;20249;-57
2023/03/24 06:51:35;;;;;;;1.50;1.40;;;;;;;12.91;82.57;94602.19;4364600;32;20193;-58
2023/03/24 06:54:02;;;;;;;1.07;1.07;;;;;;;12.97;82.96;94595.56;4365808;32;20189;-57
2023/03/24 06:56:27;;;;;;;1.20;1.10;;;;;;;13.09;81.79;94594.84;4350118;32;20185;-57
2023/03/24 06:58:53;;;;;;;0.83;0.83;;;;;;;13.27;81.12;94598.94;4374440;32;20243;-57
2023/03/24 07:01:19;;;;;;;1.30;1.20;;;;;;;13.25;82.45;94598.50;4375936;32;20211;-54
2023/03/24 07:03:44;;;;;;;1.93;1.87;;;;;;;13.26;82.44;94607.25;4373129;32;20207;-57
2023/03/24 07:06:10;;;;;;;1.70;1.60;;;;;;;13.26;83.40;94593.94;4373901;32;20189;-55
2023/03/24 07:08:36;;;;;;;1.13;1.03;;;;;;;13.08;82.79;94603.94;4361394;32;20307;-57
2023/03/24 07:11:02;;;;;;;1.73;1.63;;;;;;;13.07;81.95;94603.16;4370266;32;20243;-56
2023/03/24 07:13:28;;;;;;;1.17;0.80;;;;;;;13.08;81.75;94603.94;4362990;32;20189;-56
2023/03/24 07:15:53;;;;;;;4.07;3.87;;;;;;;13.07;82.27;94615.72;4366214;32;20188;-57
2023/03/24 07:18:19;;;;;;;3.00;2.90;;;;;;;13.28;81.52;94623.69;4360250;32;20230;-56
2023/03/24 07:20:45;;;;;;;2.13;2.00;;;;;;;13.43;80.76;94631.09;4370408;32;20245;-63
2023/03/24 07:23:11;;;;;;;1.37;1.27;;;;;;;13.43;84.12;94625.75;4372422;32;20181;-62
2023/03/24 07:25:38;;;;;;;7.43;1.93;;;;;;;14.82;89.17;94632.91;4374008;32;20212;-61
2023/03/24 07:28:04;;;;;;;16.40;1.97;;;;;;;15.08;85.35;94644.75;4375480;32;20243;-62
2023/03/24 07:30:29;;;;;;;1.40;1.30;;;;;;;15.46;82.85;94643.50;4373728;32;20196;-62
2023/03/24 07:32:55;;;;;;;2.00;1.87;;;;;;;15.78;80.71;94661.25;4366640;32;20213;-62
2023/03/24 07:35:21;;;;;;;2.23;1.63;;;;;;;16.29;78.17;94660.59;4372486;32;20212;-62
2023/03/24 07:37:46;;;;;;;1.33;1.33;;;;;;;16.58;76.39;94659.38;4361658;32;20189;-62
2023/03/24 07:40:13;;;;;;;1.43;1.40;;;;;;;16.78;75.00;94669.84;4365134;32;20201;-62
2023/03/24 07:42:40;;;;;;;1.20;1.20;;;;;;;16.77;74.58;94688.94;4369102;32;20193;-62
2023/03/24 07:45:08;;;;;;;1.47;1.37;;;;;;;16.92;73.40;94695.38;4349949;32;20252;-59
2023/03/24 07:47:34;;;;;;;1.13;1.13;;;;;;;16.97;72.79;94701.25;4360265;32;20283;-62
2023/03/24 07:50:02;;;;;;;1.20;1.20;;;;;;;17.13;72.42;94707.38;4372964;32;20188;-62
2023/03/24 07:52:29;;;;;;;1.17;1.17;;;;;;;17.20;71.19;94711.34;4357084;32;20228;-62
2023/03/24 07:54:55;;;;;;;1.67;1.57;;;;;;;17.21;70.67;94707.53;4364266;32;20220;-63
2023/03/24 07:57:20;;;;;;;1.73;1.63;;;;;;;16.53;68.60;94716.66;4357459;32;20200;-56
2023/03/24 07:59:45;;;;;;;1.30;1.30;;;;;;;16.44;69.57;94703.41;4370001;32;20215;-57
2023/03/24 08:02:16;;;;;;;1.13;1.13;;;;;;;15.65;71.51;94704.41;4354581;32;20236;-54
2023/03/24 08:04:42;;;;;;;1.30;1.30;;;;;;;15.22;73.04;94711.19;4371371;32;20250;-58
2023/03/24 08:07:07;;;;;;;1.33;1.33;;;;;;;14.88;74.44;94720.47;4352572;32;20229;-55
2023/03/24 08:09:33;;;;;;;1.27;1.27;;;;;;;14.54;76.33;94718.25;4372236;32;20200;-58
2023/03/24 08:11:59;;;;;;;2.40;1.63;;;;;;;14.60;75.49;94724.91;4361459;32;20237;-59
2023/03/24 08:14:24;;;;;;;1.20;1.17;;;;;;;14.42;76.62;94725.13;4368444;32;20273;-58
2023/03/24 08:16:49;;;;;;;1.27;1.27;;;;;;;14.37;76.53;94719.19;4368420;32;20200;-58
2023/03/24 08:19:15;;;;;;;0.90;0.90;;;;;;;14.40;75.99;94719.34;4356298;32;20200;-56
2023/03/24 08:21:40;;;;;;;0.93;0.93;;;;;;;14.38;75.70;94702.06;4365186;32;20199;-58
2023/03/24 08:24:06;;;;;;;0.80;0.80;;;;;;;14.36;75.37;94710.41;4365543;32;20199;-55
2023/03/24 08:26:34;;;;;;;1.03;1.03;;;;;;;14.41;74.88;94707.56;4371134;32;20253;-58
2023/03/24 08:28:59;;;;;;;3.20;0.97;;;;;;;14.49;74.77;94708.56;4356304;32;20188;-57
2023/03/24 08:31:34;;;;;;;1.47;1.37;;;;;;;14.57;74.81;94714.91;4371765;32;20207;-55
2023/03/24 08:33:59;;;;;;;1.63;1.53;;;;;;;14.60;74.59;94712.34;4361470;32;20206;-55
2023/03/24 08:36:27;;;;;;;1.53;1.40;;;;;;;14.69;73.83;94717.59;4369766;32;20189;-56
2023/03/24 08:38:55;;;;;;;1.50;0.77;;;;;;;14.68;74.50;94719.47;4369992;32;20193;-56
2023/03/24 08:41:21;;;;;;;1.00;1.00;;;;;;;14.78;74.47;94721.69;4373756;32;20196;-56
2023/03/24 08:43:47;;;;;;;1.13;1.07;;;;;;;14.85;73.59;94720.34;4369864;32;20239;-56
2023/03/24 08:46:14;;;;;;;4.00;0.83;;;;;;;14.93;72.92;94722.94;4355611;32;20226;-57
2023/03/24 08:48:39;;;;;;;1.13;1.13;;;;;;;14.82;73.07;94721.81;4357562;32;20285;-58
2023/03/24 08:51:16;;;;;;;0.77;0.77;;;;;;;14.89;73.28;94726.59;4368751;32;20235;-56
2023/03/24 08:53:42;;;;;;;0.20;0.20;;;;;;;14.81;72.90;94732.81;4365613;32;20188;-55
2023/03/24 08:56:08;;;;;;;0.87;0.77;;;;;;;14.83;72.45;94739.38;4351165;32;20189;-55
2023/03/24 08:58:34;;;;;;;0.63;0.63;;;;;;;14.89;73.83;94743.41;4356107;32;20196;-56
2023/03/24 09:00:59;;;;;;;0.80;0.80;;;;;;;14.83;73.99;94746.62;4361708;32;20219;-57
2023/03/24 09:03:25;;;;;;;0.67;0.67;;;;;;;14.84;74.08;94750.84;4368962;32;20212;-53
2023/03/24 09:05:55;;;;;;;1.30;1.20;;;;;;;14.95;73.31;94747.41;4375620;32;20188;-54
2023/03/24 09:08:21;;;;;;;0.77;0.77;;;;;;;14.98;73.08;94752.06;4362218;32;20255;-55
2023/03/24 09:10:50;;;;;;;3.70;0.97;;;;;;;15.15;72.97;94747.63;4353337;32;20204;-57
2023/03/24 09:13:18;;;;;;;1.33;0.87;;;;;;;14.80;75.34;94748.06;4357504;32;20200;-56
2023/03/24 09:15:51;;;;;;;2.53;2.33;;;;;;;14.82;75.60;94755.75;4367209;32;20197;-58
2023/03/24 09:18:18;;;;;;;2.03;1.53;;;;;;;14.79;75.74;94743.81;4355772;32;20224;-56
2023/03/24 09:20:45;;;;;;;0.83;0.83;;;;;;;14.80;75.13;94745.38;4356652;32;20192;-56
2023/03/24 09:23:10;;;;;;;1.97;1.10;;;;;;;14.75;75.69;94750.97;4371998;32;20231;-56
2023/03/24 09:25:35;;;;;;;1.27;1.17;;;;;;;14.75;75.86;94764.31;4365941;32;20201;-52
2023/03/24 09:28:01;;;;;;;0.20;0.20;;;;;;;14.92;76.41;94749.97;4341861;32;20193;-58
2023/03/24 09:30:26;;;;;;;0.70;0.70;;;;;;;14.83;76.16;94752.75;4365981;32;20212;-58
2023/03/24 09:32:52;;;;;;;1.07;1.00;;;;;;;14.85;75.63;94761.19;4372214;32;20215;-58
2023/03/24 09:35:17;;;;;;;0.50;0.50;;;;;;;14.82;76.33;94764.53;4365421;32;20260;-56
2023/03/24 09:37:43;;;;;;;1.00;0.90;;;;;;;14.84;75.97;94770.31;4366290;32;20193;-51
2023/03/24 09:40:19;;;;;;;0.40;0.40;;;;;;;14.92;77.42;94772.13;4364889;32;20203;-58
2023/03/24 09:42:52;;;;;;;0.47;0.47;;;;;;;14.90;77.78;94781.56;4373234;32;20192;-56
2023/03/24 09:45:20;;;;;;;0.53;0.53;;;;;;;14.73;79.16;94786.00;4358218;32;20242;-53
2023/03/24 09:47:51;;;;;;;0.37;0.37;;;;;;;14.64;80.36;94787.22;4356058;32;20215;-58
2023/03/24 09:50:24;;;;;;;0.67;0.67;;;;;;;14.57;81.26;94790.41;4353266;32;20220;-55
2023/03/24 09:52:55;;;;;;;0.43;0.43;;;;;;;14.39;82.55;94799.69;4359607;32;20193;-55
2023/03/24 09:55:24;;;;;;;1.20;0.70;;;;;;;14.44;82.95;94792.28;4359618;32;20185;-56
2023/03/24 09:57:51;;;;;;;0.63;0.63;;;;;;;14.42;83.17;94783.06;4373969;32;20200;-56
2023/03/24 10:00:26;;;;;;;0.73;0.73;;;;;;;14.21;85.09;94798.31;4360701;32;20293;-55
2023/03/24 10:02:56;;;;;;;0.77;0.77;;;;;;;14.12;84.87;94790.41;4352791;32;20198;-56
2023/03/24 10:05:40;;;;;;;0.50;0.50;;;;;;;14.13;84.92;94801.84;4371419;32;20192;-53
2023/03/24 10:08:20;;;;;;;0.40;0.40;;;;;;;14.05;85.30;94790.16;4361751;32;20232;-59
2023/03/24 10:11:27;;;;;;;1.37;0.77;;;;;;;14.14;85.85;94796.16;4359832;32;20197;-55
2023/03/24 10:14:01;;;;;;;0.67;0.67;;;;;;;14.07;85.80;94802.06;4330705;32;20193;-59
2023/03/24 10:16:57;;;;;;;1.03;0.93;;;;;;;14.21;84.95;94811.66;4356921;32;20314;-59
2023/03/24 10:19:39;;;;;;;5.50;0.77;;;;;;;14.11;85.28;94815.53;4349515;32;20177;-58
2023/03/24 10:22:31;;;;;;;0.63;0.63;;;;;;;14.23;84.78;94823.56;4372297;32;20207;-55
2023/03/24 10:25:12;;;;;;;1.30;1.30;;;;;;;13.97;86.27;94820.31;4369431;32;20337;-57
2023/03/24 10:27:47;;;;;;;0.77;0.77;;;;;;;14.06;86.29;94831.72;4348351;32;20189;-58
2023/03/24 10:30:26;;;;;;;1.33;0.70;;;;;;;14.13;86.28;94817.87;4357284;32;20188;-57
2023/03/24 10:33:10;;;;;;;1.93;0.70;;;;;;;14.15;85.98;94827.06;4374124;32;20192;-58
2023/03/24 10:35:42;;;;;;;1.17;1.17;;;;;;;14.13;86.43;94831.97;4372136;32;20244;-58
2023/03/24 10:38:19;;;;;;;0.83;0.83;;;;;;;14.06;86.22;94824.50;4366025;32;20189;-58
2023/03/24 10:40:48;;;;;;;0.70;0.70;;;;;;;14.21;85.88;94831.09;4358054;32;20228;-57
2023/03/24 10:43:20;;;;;;;4.03;0.93;;;;;;;14.18;86.03;94831.75;4364234;32;20215;-54
2023/03/24 10:45:50;;;;;;;0.57;0.57;;;;;;;14.09;86.03;94836.41;4363399;32;20205;-54
2023/03/24 10:48:34;;;;;;;34.17;1.87;;;;;;;14.12;86.21;94835.75;4364525;32;20250;-54
2023/03/24 10:51:00;;;;;;;1.13;1.13;;;;;;;14.15;85.78;94829.75;4370507;32;20196;-54
2023/03/24 10:53:26;;;;;;;0.63;0.63;;;;;;;14.31;85.00;94833.37;4373302;32;23578;-59
2023/03/24 10:55:51;;;;;;;0.87;0.70;;;;;;;14.16;85.74;94831.31;4373592;32;20201;-58
2023/03/24 10:58:29;;;;;;;0.83;0.80;;;;;;;14.32;85.41;94834.94;4369875;32;20268;-57
2023/03/24 11:00:57;;;;;;;1.10;0.50;;;;;;;14.39;83.73;94839.72;4361525;32;20192;-59
2023/03/24 11:03:30;;;;;;;1.50;1.03;;;;;;;14.27;84.37;94840.47;4365539;32;20204;-58
2023/03/24 11:06:00;;;;;;;0.63;0.63;;;;;;;14.25;83.74;94850.69;4359800;32;20197;-57
2023/03/24 11:08:37;;;;;;;0.67;0.67;;;;;;;14.17;83.89;94845.41;4370276;32;20261;-56
2023/03/24 11:11:33;;;;;;;0.70;0.70;;;;;;;14.19;84.07;94846.66;4360605;32;20245;-57
2023/03/24 11:14:00;;;;;;;0.67;0.67;;;;;;;14.11;84.41;94836.84;4356769;32;20211;-59
2023/03/24 11:16:42;;;;;;;0.57;0.43;;;;;;;14.11;84.93;94839.53;4363452;32;21652;-59
2023/03/24 11:19:20;;;;;;;0.57;0.57;;;;;;;14.10;85.92;94846.75;4350093;32;20207;-58
2023/03/24 11:21:48;;;;;;;0.47;0.47;;;;;;;13.93;86.07;94830.88;4370932;32;20244;-58
2023/03/24 11:24:19;;;;;;;0.87;0.80;;;;;;;13.90;87.00;94833.44;4374342;32;20263;-59
2023/03/24 11:27:00;;;;;;;0.40;0.40;;;;;;;13.87;87.29;94829.53;4368984;32;20192;-56
2023/03/24 11:29:29;;;;;;;0.53;0.43;;;;;;;13.90;88.29;94833.44;4349226;32;20189;-58
2023/03/24 11:32:00;;;;;;;0.43;0.43;;;;;;;13.74;87.90;94819.88;4374086;32;20192;-55
2023/03/24 11:34:37;;;;;;;0.53;0.53;;;;;;;13.71;89.37;94829.34;4376451;32;20181;-57
2023/03/24 11:37:18;;;;;;;0.53;0.53;;;;;;;13.56;91.35;94813.91;4357992;32;20226;-58
2023/03/24 11:40:15;;;;;;;0.50;0.50;;;;;;;13.61;91.24;94795.06;4354608;32;20196;-58
2023/03/24 11:42:45;;;;;;;0.53;0.53;;;;;;;13.52;91.20;94783.66;4373403;32;20185;-58
2023/03/24 11:45:38;;;;;;;0.40;0.40;;;;;;;13.54;91.96;94784.12;4367379;32;20184;-55
2023/03/24 11:48:26;;;;;;;0.50;0.50;;;;;;;13.55;91.84;94777.69;4365577;32;20185;-57
2023/03/24 11:50:55;;;;;;;0.57;0.57;;;;;;;13.96;91.68;94781.44;4350503;32;20201;-57